createdAt,value
2024-03-04T00:00:17.180Z,66.77
2024-03-04T00:01:17.464Z,64.79
2024-03-04T00:02:17.407Z,66.87
2024-03-04T00:03:17.400Z,66.48
2024-03-04T00:04:17.535Z,65.47
2024-03-04T00:05:17.519Z,67.12
2024-03-04T00:06:17.636Z,68.24
2024-03-04T00:07:17.717Z,66.02
2024-03-04T00:08:17.806Z,68.56
2024-03-04T00:09:17.815Z,66.32
2024-03-04T00:10:17.904Z,66.17
2024-03-04T00:11:17.965Z,66.38
2024-03-04T00:12:17.988Z,66.40
2024-03-04T00:13:18.128Z,64.20
2024-03-04T00:14:18.115Z,66.15
2024-03-04T00:15:18.214Z,67.08
2024-03-04T00:16:18.286Z,65.13
2024-03-04T00:17:18.323Z,66.73
2024-03-04T00:18:18.432Z,66.24
2024-03-04T00:19:18.518Z,65.90
2024-03-04T00:20:18.527Z,63.62
2024-03-04T00:21:18.591Z,66.72
2024-03-04T00:22:18.738Z,63.72
2024-03-04T00:23:18.745Z,64.44
2024-03-04T00:24:18.801Z,64.32
2024-03-04T00:25:18.902Z,61.30
2024-03-04T00:26:18.953Z,61.30
2024-03-04T00:27:18.999Z,65.85
2024-03-04T00:28:19.137Z,60.90
2024-03-04T00:29:19.174Z,59.45
2024-03-04T00:30:19.213Z,63.00
2024-03-04T00:31:19.344Z,65.29
2024-03-04T00:32:19.344Z,64.33
2024-03-04T00:33:19.454Z,65.18
2024-03-04T00:34:19.543Z,66.14
2024-03-04T00:35:19.537Z,65.86
2024-03-04T00:36:19.622Z,65.03
2024-03-04T00:37:19.691Z,63.63
2024-03-04T00:38:19.762Z,60.67
2024-03-04T00:39:19.840Z,61.38
2024-03-04T00:40:20.044Z,64.91
2024-03-04T00:41:19.999Z,65.05
2024-03-04T00:42:20.039Z,61.09
2024-03-04T00:43:20.184Z,64.67
2024-03-04T00:44:20.203Z,59.86
2024-03-04T00:45:20.258Z,61.36
2024-03-04T00:46:20.407Z,64.07
2024-03-04T00:47:20.390Z,59.14
2024-03-04T00:48:20.563Z,63.34
2024-03-04T00:49:20.603Z,65.70
2024-03-04T00:50:20.630Z,63.48
2024-03-04T00:51:20.680Z,62.59
2024-03-04T00:52:20.802Z,62.72
2024-03-04T00:53:20.824Z,62.05
2024-03-04T00:54:20.910Z,61.13
2024-03-04T00:55:21.006Z,65.05
2024-03-04T00:56:21.104Z,66.10
2024-03-04T00:57:21.109Z,61.72
2024-03-04T00:58:21.276Z,60.80
2024-03-04T00:59:21.254Z,59.87
2024-03-04T01:00:21.319Z,63.15
2024-03-04T01:01:21.441Z,60.78
2024-03-04T01:02:21.516Z,63.34
2024-03-04T01:03:21.488Z,59.67
2024-03-04T01:04:21.591Z,59.62
2024-03-04T01:05:21.621Z,64.20
2024-03-04T01:06:21.714Z,63.80
2024-03-04T01:07:21.768Z,61.52
2024-03-04T01:08:21.834Z,63.75
2024-03-04T01:09:21.902Z,66.99
2024-03-04T01:10:22.005Z,66.17
2024-03-04T01:11:22.086Z,63.24
2024-03-04T01:12:22.099Z,63.87
2024-03-04T01:13:22.192Z,64.93
2024-03-04T01:14:22.268Z,62.65
2024-03-04T01:15:22.304Z,63.01
2024-03-04T01:16:22.405Z,66.60
2024-03-04T01:17:22.497Z,63.62
2024-03-04T01:18:22.582Z,62.27
2024-03-04T01:19:22.633Z,62.96
2024-03-04T01:20:22.651Z,64.55
2024-03-04T01:21:22.724Z,66.22
2024-03-04T01:22:22.864Z,63.91
2024-03-04T01:23:22.870Z,64.54
2024-03-04T01:24:22.944Z,63.62
2024-03-04T01:25:23.041Z,65.38
2024-03-04T01:26:23.075Z,65.04
2024-03-04T01:27:23.152Z,63.83
2024-03-04T01:28:23.292Z,64.28
2024-03-04T01:29:23.269Z,64.99
2024-03-04T01:30:23.384Z,65.77
2024-03-04T01:31:23.435Z,63.74
2024-03-04T01:32:23.494Z,61.11
2024-03-04T01:33:23.533Z,63.74
2024-03-04T01:34:23.660Z,66.30
2024-03-04T01:35:23.625Z,64.53
2024-03-04T01:36:23.664Z,64.82
2024-03-04T01:37:23.800Z,66.15
2024-03-04T01:38:23.809Z,65.21
2024-03-04T01:39:23.870Z,61.04
2024-03-04T01:40:23.963Z,61.95
2024-03-04T01:41:23.985Z,65.67
2024-03-04T01:42:24.054Z,61.43
2024-03-04T01:43:24.141Z,65.94
2024-03-04T01:44:24.165Z,66.46
2024-03-04T01:45:24.240Z,66.59
2024-03-04T01:46:24.332Z,64.21
2024-03-04T01:47:24.367Z,64.82
2024-03-04T01:48:24.350Z,63.07
2024-03-04T01:49:24.424Z,63.08
2024-03-04T01:50:24.468Z,64.08
2024-03-04T01:51:24.506Z,62.38
2024-03-04T01:52:24.580Z,64.51
2024-03-04T01:53:24.610Z,61.61
2024-03-04T01:54:24.679Z,64.65
2024-03-04T01:55:24.789Z,64.21
2024-03-04T01:56:24.740Z,64.79
2024-03-04T01:57:24.791Z,61.44
2024-03-04T01:58:24.858Z,63.59
2024-03-04T01:59:24.892Z,63.86
2024-03-04T02:00:24.950Z,61.99
2024-03-04T02:01:25.058Z,66.50
2024-03-04T02:02:24.986Z,61.63
2024-03-04T02:03:25.050Z,64.45
2024-03-04T02:04:25.146Z,63.46
2024-03-04T02:05:25.118Z,62.25
2024-03-04T02:06:25.164Z,62.29
2024-03-04T02:07:25.187Z,61.76
2024-03-04T02:08:25.217Z,63.93
2024-03-04T02:09:25.279Z,61.30
2024-03-04T02:10:25.325Z,63.33
2024-03-04T02:11:25.357Z,61.12
2024-03-04T02:12:25.343Z,58.60
2024-03-04T02:13:25.413Z,62.08
2024-03-04T02:14:25.438Z,62.39
2024-03-04T02:15:25.432Z,60.33
2024-03-04T02:16:25.508Z,62.20
2024-03-04T02:17:25.507Z,61.82
2024-03-04T02:18:25.475Z,59.59
2024-03-04T02:19:25.622Z,62.25
2024-03-04T02:20:25.562Z,58.23
2024-03-04T02:21:25.564Z,58.09
2024-03-04T02:22:25.636Z,58.53
2024-03-04T02:23:25.599Z,57.70
2024-03-04T02:24:25.668Z,58.48
2024-03-04T02:25:25.715Z,61.55
2024-03-04T02:26:25.633Z,58.07
2024-03-04T02:27:25.624Z,57.68
2024-03-04T02:28:25.787Z,55.59
2024-03-04T02:29:25.751Z,58.15
2024-03-04T02:30:25.668Z,57.62
2024-03-04T02:31:25.716Z,52.12
2024-03-04T02:32:25.703Z,54.86
2024-03-04T02:33:25.706Z,55.56
2024-03-04T02:34:25.752Z,56.67
2024-03-04T02:35:25.732Z,55.37
2024-03-04T02:36:25.763Z,55.40
2024-03-04T02:37:25.868Z,57.45
2024-03-04T02:38:25.755Z,57.38
2024-03-04T02:39:25.809Z,53.34
2024-03-04T02:40:25.803Z,55.39
2024-03-04T02:41:25.768Z,56.25
2024-03-04T02:42:25.737Z,54.30
2024-03-04T02:43:25.836Z,54.80
2024-03-04T02:44:25.767Z,55.50
2024-03-04T02:45:25.810Z,53.29
2024-03-04T02:46:25.878Z,53.76
2024-03-04T02:47:25.792Z,54.88
2024-03-04T02:48:25.792Z,56.13
2024-03-04T02:49:25.847Z,55.66
2024-03-04T02:50:25.769Z,54.63
2024-03-04T02:51:25.794Z,53.43
2024-03-04T02:52:25.848Z,53.42
2024-03-04T02:53:25.828Z,54.43
2024-03-04T02:54:25.820Z,53.25
2024-03-04T02:55:25.834Z,52.74
2024-03-04T02:56:25.836Z,50.90
2024-03-04T02:57:25.857Z,54.67
2024-03-04T02:58:25.856Z,54.25
2024-03-04T02:59:25.867Z,53.61
2024-03-04T03:00:25.841Z,54.03
2024-03-04T03:01:25.928Z,53.16
2024-03-04T03:02:25.852Z,52.80
2024-03-04T03:03:25.840Z,51.21
2024-03-04T03:04:25.863Z,51.63
2024-03-04T03:05:25.832Z,53.44
2024-03-04T03:06:25.863Z,51.18
2024-03-04T03:07:25.920Z,55.75
2024-03-04T03:08:25.851Z,54.12
2024-03-04T03:09:25.884Z,54.29
2024-03-04T03:10:25.951Z,52.55
2024-03-04T03:11:25.920Z,53.47
2024-03-04T03:12:25.911Z,54.64
2024-03-04T03:13:25.939Z,51.86
2024-03-04T03:14:25.923Z,52.72
2024-03-04T03:15:25.945Z,54.65
2024-03-04T03:16:25.952Z,54.88
2024-03-04T03:17:25.915Z,55.20
2024-03-04T03:18:25.927Z,53.46
2024-03-04T03:19:25.989Z,53.98
2024-03-04T03:20:25.921Z,51.79
2024-03-04T03:21:25.908Z,53.73
2024-03-04T03:22:25.947Z,51.68
2024-03-04T03:23:25.952Z,54.31
2024-03-04T03:24:25.956Z,54.74
2024-03-04T03:25:25.980Z,52.47
2024-03-04T03:26:25.941Z,54.85
2024-03-04T03:27:25.947Z,54.45
2024-03-04T03:28:25.993Z,53.60
2024-03-04T03:29:25.935Z,54.46
2024-03-04T03:30:25.953Z,54.10
2024-03-04T03:31:25.997Z,54.35
2024-03-04T03:32:26.023Z,53.81
2024-03-04T03:33:25.964Z,54.42
2024-03-04T03:34:26.091Z,52.45
2024-03-04T03:35:26.020Z,52.15
2024-03-04T03:36:25.972Z,55.53
2024-03-04T03:37:25.974Z,53.10
2024-03-04T03:38:26.037Z,55.36
2024-03-04T03:39:25.980Z,51.41
2024-03-04T03:40:26.024Z,54.79
2024-03-04T03:41:25.993Z,53.70
2024-03-04T03:42:26.023Z,54.22
2024-03-04T03:43:26.043Z,54.70
2024-03-04T03:44:26.072Z,53.48
2024-03-04T03:45:26.023Z,54.04
2024-03-04T03:46:26.086Z,54.47
2024-03-04T03:47:26.116Z,54.52
2024-03-04T03:48:26.081Z,54.50
2024-03-04T03:49:26.072Z,55.38
2024-03-04T03:50:26.076Z,53.24
2024-03-04T03:51:26.076Z,54.48
2024-03-04T03:52:26.145Z,55.96
2024-03-04T03:53:26.063Z,54.51
2024-03-04T03:54:26.071Z,54.98
2024-03-04T03:55:26.104Z,56.36
2024-03-04T03:56:26.127Z,55.94
2024-03-04T03:57:27.943Z,55.30
2024-03-04T03:58:26.129Z,55.53
2024-03-04T03:59:26.124Z,56.06
2024-03-04T04:00:28.370Z,55.37
2024-03-04T04:01:26.214Z,55.42
2024-03-04T04:02:26.122Z,55.43
2024-03-04T04:03:26.139Z,53.88
2024-03-04T04:04:26.207Z,55.72
2024-03-04T04:05:26.154Z,53.41
2024-03-04T04:06:26.129Z,55.92
2024-03-04T04:07:26.192Z,53.77
2024-03-04T04:08:26.155Z,53.98
2024-03-04T04:09:26.135Z,56.44
2024-03-04T04:10:26.220Z,54.74
2024-03-04T04:11:26.191Z,52.77
2024-03-04T04:12:26.129Z,53.47
2024-03-04T04:13:26.201Z,53.14
2024-03-04T04:14:26.156Z,52.95
2024-03-04T04:15:29.567Z,53.03
2024-03-04T04:16:26.164Z,53.04
2024-03-04T04:17:26.163Z,52.21
2024-03-04T04:18:26.177Z,52.07
2024-03-04T04:19:26.188Z,49.99
2024-03-04T04:20:26.144Z,50.01
2024-03-04T04:21:26.218Z,54.02
2024-03-04T04:22:26.183Z,52.29
2024-03-04T04:23:26.125Z,51.75
2024-03-04T04:24:26.149Z,52.72
2024-03-04T04:25:26.207Z,51.94
2024-03-04T04:26:26.156Z,53.04
2024-03-04T04:27:26.123Z,55.68
2024-03-04T04:28:33.525Z,50.00
2024-03-04T04:29:33.385Z,50.00
2024-03-04T04:30:33.350Z,50.00
2024-03-04T04:31:40.588Z,50.00
2024-03-04T04:32:40.609Z,50.00
2024-03-04T04:33:40.668Z,50.00
2024-03-04T04:34:40.700Z,50.00
2024-03-04T04:35:40.618Z,50.00
2024-03-04T04:36:40.635Z,51.73
2024-03-04T04:37:40.688Z,50.75
2024-03-04T04:38:40.628Z,53.95
2024-03-04T04:39:40.601Z,50.84
2024-03-04T04:40:40.665Z,53.35
2024-03-04T04:41:40.643Z,54.59
2024-03-04T04:42:40.614Z,51.03
2024-03-04T04:43:40.646Z,51.45
2024-03-04T04:44:40.636Z,52.37
2024-03-04T04:45:40.659Z,51.27
2024-03-04T04:46:40.645Z,50.64
2024-03-04T04:47:40.655Z,51.61
2024-03-04T04:48:40.608Z,51.36
2024-03-04T04:49:40.692Z,54.00
2024-03-04T04:50:40.644Z,52.09
2024-03-04T04:51:40.602Z,52.61
2024-03-04T04:52:40.671Z,52.58
2024-03-04T04:53:40.612Z,52.01
2024-03-04T04:54:40.624Z,53.79
2024-03-04T04:55:40.653Z,53.00
2024-03-04T04:56:40.595Z,52.78
2024-03-04T04:57:40.642Z,55.08
2024-03-04T04:58:40.630Z,53.43
2024-03-04T04:59:40.627Z,51.49
2024-03-04T05:00:40.655Z,53.25
2024-03-04T05:01:40.709Z,52.47
2024-03-04T05:02:40.609Z,52.62
2024-03-04T05:04:50.702Z,52.72
2024-03-04T05:05:41.632Z,52.69
2024-03-04T05:06:40.684Z,53.01
2024-03-04T05:07:40.832Z,52.97
2024-03-04T05:08:40.638Z,53.32
2024-03-04T05:09:40.657Z,52.95
2024-03-04T05:10:40.840Z,52.05
2024-03-04T05:11:40.644Z,52.95
2024-03-04T05:12:40.609Z,53.03
2024-03-04T05:13:40.717Z,52.20
2024-03-04T05:14:40.665Z,52.31
2024-03-04T05:15:40.619Z,53.66
2024-03-04T05:16:40.649Z,52.11
2024-03-04T05:17:40.660Z,55.15
2024-03-04T05:18:40.636Z,51.34
2024-03-04T05:19:40.675Z,52.71
2024-03-04T05:20:50.087Z,51.04
2024-03-04T05:21:41.675Z,51.20
2024-03-04T05:22:40.705Z,51.28
2024-03-04T05:23:41.206Z,51.10
2024-03-04T05:24:40.685Z,51.83
2024-03-04T05:25:40.777Z,52.77
2024-03-04T05:26:40.648Z,53.78
2024-03-04T05:27:40.641Z,51.94
2024-03-04T05:28:40.666Z,52.35
2024-03-04T05:29:40.655Z,53.25
2024-03-04T05:30:40.702Z,52.96
2024-03-04T05:31:40.689Z,52.28
2024-03-04T05:32:40.659Z,50.94
2024-03-04T05:33:40.721Z,51.89
2024-03-04T05:34:40.746Z,52.80
2024-03-04T05:35:40.665Z,53.70
2024-03-04T05:36:40.706Z,54.85
2024-03-04T05:37:40.756Z,55.16
2024-03-04T05:38:40.698Z,52.49
2024-03-04T05:39:40.649Z,55.29
2024-03-04T05:40:40.740Z,56.15
2024-03-04T05:41:40.670Z,54.69
2024-03-04T05:42:40.845Z,53.82
2024-03-04T05:43:40.709Z,56.26
2024-03-04T05:44:40.800Z,54.56
2024-03-04T05:45:40.692Z,54.71
2024-03-04T05:46:40.746Z,55.62
2024-03-04T05:47:40.719Z,55.47
2024-03-04T05:48:40.684Z,55.58
2024-03-04T05:49:40.724Z,54.94
2024-03-04T05:50:40.741Z,55.43
2024-03-04T05:51:40.730Z,52.83
2024-03-04T05:52:40.901Z,51.45
2024-03-04T05:53:40.829Z,52.75
2024-03-04T05:54:40.821Z,53.17
2024-03-04T05:55:40.915Z,50.64
2024-03-04T05:56:40.876Z,51.46
2024-03-04T05:57:40.919Z,50.74
2024-03-04T05:58:41.012Z,52.55
2024-03-04T05:59:40.985Z,50.98
2024-03-04T06:00:41.323Z,52.60
2024-03-04T06:01:41.285Z,50.01
2024-03-04T06:02:41.088Z,52.36
2024-03-04T06:03:41.096Z,54.04
2024-03-04T06:04:41.181Z,54.03
2024-03-04T06:05:41.191Z,55.16
2024-03-04T06:06:41.223Z,51.25
2024-03-04T06:07:41.293Z,54.57
2024-03-04T06:08:41.263Z,51.79
2024-03-04T06:09:41.307Z,54.09
2024-03-04T06:10:41.345Z,51.37
2024-03-04T06:11:41.362Z,53.30
2024-03-04T06:12:41.328Z,55.22
2024-03-04T06:13:41.426Z,51.66
2024-03-04T06:14:41.400Z,51.37
2024-03-04T06:15:41.451Z,51.79
2024-03-04T06:16:41.485Z,54.59
2024-03-04T06:17:41.519Z,53.63
2024-03-04T06:18:41.512Z,55.59
2024-03-04T06:19:41.634Z,53.92
2024-03-04T06:20:41.564Z,54.78
2024-03-04T06:21:41.582Z,55.49
2024-03-04T06:22:41.682Z,55.09
2024-03-04T06:23:41.610Z,58.12
2024-03-04T06:24:41.640Z,57.18
2024-03-04T06:25:41.758Z,59.51
2024-03-04T06:26:41.690Z,58.73
2024-03-04T06:27:41.736Z,55.97
2024-03-04T06:28:41.754Z,57.50
2024-03-04T06:29:41.764Z,56.03
2024-03-04T06:30:41.816Z,59.51
2024-03-04T06:31:41.830Z,60.16
2024-03-04T06:32:41.907Z,56.40
2024-03-04T06:33:51.492Z,58.29
2024-03-04T06:34:42.951Z,56.75
2024-03-04T06:35:41.867Z,58.29
2024-03-04T06:36:41.873Z,57.04
2024-03-04T06:37:41.946Z,56.13
2024-03-04T06:38:41.891Z,52.57
2024-03-04T06:39:41.873Z,51.60
2024-03-04T06:40:41.942Z,48.07
2024-03-04T06:41:41.847Z,52.08
2024-03-04T06:42:41.882Z,50.00
2024-03-04T06:43:41.999Z,51.77
2024-03-04T06:44:41.869Z,56.38
2024-03-04T06:45:41.909Z,54.70
2024-03-04T06:46:41.886Z,59.49
2024-03-04T06:47:41.913Z,56.92
2024-03-04T06:48:41.875Z,55.54
2024-03-04T06:49:41.922Z,71.26
2024-03-04T06:50:41.903Z,77.39
2024-03-04T06:51:41.898Z,86.73
2024-03-04T06:52:41.971Z,81.94
2024-03-04T06:53:41.870Z,82.89
2024-03-04T06:54:41.878Z,86.21
2024-03-04T06:55:42.033Z,86.60
2024-03-04T06:56:41.992Z,85.36
2024-03-04T06:57:42.053Z,89.29
2024-03-04T06:58:42.145Z,93.37
2024-03-04T06:59:42.132Z,98.25
2024-03-04T07:00:44.052Z,103.53
2024-03-04T07:01:42.313Z,105.77
2024-03-04T07:02:42.269Z,106.42
2024-03-04T07:03:42.304Z,108.33
2024-03-04T07:04:42.444Z,113.55
2024-03-04T07:05:42.365Z,122.30
2024-03-04T07:06:42.361Z,126.69
2024-03-04T07:07:42.460Z,121.11
2024-03-04T07:08:42.434Z,128.23
2024-03-04T07:09:42.468Z,134.63
2024-03-04T07:10:42.577Z,138.40
2024-03-04T07:11:42.501Z,142.30
2024-03-04T07:12:42.491Z,144.17
2024-03-04T07:13:42.550Z,150.16
2024-03-04T07:14:42.497Z,154.93
2024-03-04T07:15:42.509Z,157.43
2024-03-04T07:16:42.593Z,157.68
2024-03-04T07:17:42.552Z,161.78
2024-03-04T07:18:42.554Z,167.35
2024-03-04T07:19:42.611Z,171.97
2024-03-04T07:20:42.568Z,174.61
2024-03-04T07:21:42.520Z,173.94
2024-03-04T07:22:42.700Z,176.96
2024-03-04T07:23:42.545Z,186.22
2024-03-04T07:24:42.589Z,186.94
2024-03-04T07:25:42.646Z,187.27
2024-03-04T07:26:42.666Z,193.72
2024-03-04T07:27:42.696Z,198.36
2024-03-04T07:28:42.787Z,197.61
2024-03-04T07:29:48.530Z,197.50
2024-03-04T07:30:43.735Z,197.77
2024-03-04T07:31:42.788Z,199.02
2024-03-04T07:32:42.830Z,201.99
2024-03-04T07:33:42.738Z,204.77
2024-03-04T07:34:42.794Z,213.61
2024-03-04T07:35:42.744Z,199.00
2024-03-04T07:36:42.731Z,198.56
2024-03-04T07:37:42.840Z,195.68
2024-03-04T07:38:42.792Z,197.77
2024-03-04T07:39:42.841Z,197.77
2024-03-04T07:40:42.942Z,198.19
2024-03-04T07:41:43.051Z,197.96
2024-03-04T07:42:43.043Z,199.69
2024-03-04T07:43:43.155Z,198.57
2024-03-04T07:44:43.159Z,198.97
2024-03-04T07:45:43.264Z,199.89
2024-03-04T07:46:43.422Z,198.86
2024-03-04T07:47:43.412Z,198.07
2024-03-04T07:48:43.466Z,197.90
2024-03-04T07:49:43.494Z,194.51
2024-03-04T07:50:43.585Z,195.77
2024-03-04T07:51:43.652Z,192.07
2024-03-04T07:52:43.804Z,189.97
2024-03-04T07:53:44.780Z,191.81
2024-03-04T07:54:43.859Z,192.43
2024-03-04T07:55:43.925Z,188.92
2024-03-04T07:56:43.985Z,186.17
2024-03-04T07:57:44.060Z,188.49
2024-03-04T07:58:44.105Z,188.57
2024-03-04T07:59:44.121Z,187.21
2024-03-04T08:00:44.188Z,189.18
2024-03-04T08:01:44.240Z,189.36
2024-03-04T08:02:44.359Z,191.61
2024-03-04T08:03:44.425Z,188.68
2024-03-04T08:04:44.494Z,188.73
2024-03-04T08:05:44.429Z,187.88
2024-03-04T08:06:44.463Z,187.21
2024-03-04T08:07:44.529Z,181.52
2024-03-04T08:08:44.550Z,177.94
2024-03-04T08:09:44.617Z,180.70
2024-03-04T08:10:44.804Z,180.66
2024-03-04T08:11:44.766Z,177.91
2024-03-04T08:12:44.763Z,177.69
2024-03-04T08:13:44.893Z,179.02
2024-03-04T08:14:44.885Z,177.13
2024-03-04T08:15:44.939Z,169.84
2024-03-04T08:16:45.016Z,171.90
2024-03-04T08:17:54.267Z,169.35
2024-03-04T08:18:46.114Z,166.81
2024-03-04T08:19:45.110Z,163.20
2024-03-04T08:20:45.051Z,163.19
2024-03-04T08:21:45.052Z,154.90
2024-03-04T08:22:45.146Z,154.35
2024-03-04T08:23:45.047Z,157.88
2024-03-04T08:24:45.062Z,158.44
2024-03-04T08:25:45.199Z,158.58
2024-03-04T08:26:45.029Z,158.38
2024-03-04T08:27:45.094Z,158.65
2024-03-04T08:28:45.081Z,158.06
2024-03-04T08:29:45.049Z,157.55
2024-03-04T08:30:45.095Z,156.93
2024-03-04T08:31:45.183Z,158.54
2024-03-04T08:32:45.205Z,156.90
2024-03-04T08:33:45.226Z,153.42
2024-03-04T08:34:46.774Z,153.77
2024-03-04T08:35:45.293Z,153.54
2024-03-04T08:36:45.339Z,153.00
2024-03-04T08:37:45.586Z,149.22
2024-03-04T08:38:45.416Z,149.70
2024-03-04T08:39:45.469Z,147.55
2024-03-04T08:40:45.501Z,147.88
2024-03-04T08:41:45.554Z,150.71
2024-03-04T08:42:45.587Z,155.20
2024-03-04T08:43:45.680Z,163.50
2024-03-04T08:44:45.623Z,164.54
2024-03-04T08:45:45.641Z,165.54
2024-03-04T08:46:45.821Z,161.96
2024-03-04T08:47:45.698Z,161.45
2024-03-04T08:48:45.675Z,162.13
2024-03-04T08:49:45.823Z,163.76
2024-03-04T08:50:45.673Z,163.91
2024-03-04T08:51:45.750Z,169.36
2024-03-04T08:52:45.834Z,170.18
2024-03-04T08:53:45.834Z,169.10
2024-03-04T08:54:45.905Z,170.70
2024-03-04T08:55:46.058Z,171.47
2024-03-04T08:56:46.026Z,170.09
2024-03-04T08:57:46.106Z,164.40
2024-03-04T08:58:46.240Z,164.62
2024-03-04T08:59:46.204Z,158.70
2024-03-04T09:00:46.311Z,160.44
2024-03-04T09:01:46.357Z,161.10
2024-03-04T09:02:46.401Z,160.87
2024-03-04T09:03:46.552Z,163.70
2024-03-04T09:04:46.731Z,157.38
2024-03-04T09:05:46.593Z,158.12
2024-03-04T09:06:46.690Z,157.27
2024-03-04T09:07:46.739Z,155.93
2024-03-04T09:08:46.795Z,151.06
2024-03-04T09:09:46.893Z,150.01
2024-03-04T09:10:47.004Z,150.48
2024-03-04T09:11:47.084Z,154.16
2024-03-04T09:12:47.075Z,153.62
2024-03-04T09:13:47.189Z,152.98
2024-03-04T09:14:47.191Z,152.90
2024-03-04T09:15:47.281Z,151.46
2024-03-04T09:16:47.341Z,151.21
2024-03-04T09:17:47.392Z,150.16
2024-03-04T09:18:47.466Z,149.64
2024-03-04T09:19:47.523Z,148.77
2024-03-04T09:20:47.580Z,150.33
2024-03-04T09:21:47.612Z,148.43
2024-03-04T09:22:47.750Z,146.98
2024-03-04T09:23:47.764Z,144.15
2024-03-04T09:24:47.828Z,145.32
2024-03-04T09:25:47.928Z,143.41
2024-03-04T09:26:47.939Z,143.50
2024-03-04T09:27:47.967Z,141.69
2024-03-04T09:28:48.103Z,139.07
2024-03-04T09:29:48.146Z,138.17
2024-03-04T09:30:48.183Z,141.26
2024-03-04T09:31:48.354Z,141.38
2024-03-04T09:32:48.350Z,141.26
2024-03-04T09:33:48.393Z,143.98
2024-03-04T09:34:48.490Z,145.37
2024-03-04T09:35:48.510Z,146.67
2024-03-04T09:36:48.566Z,148.82
2024-03-04T09:37:48.659Z,149.02
2024-03-04T09:38:48.721Z,157.87
2024-03-04T09:39:48.714Z,162.34
2024-03-04T09:40:48.823Z,158.38
2024-03-04T09:41:48.771Z,153.64
2024-03-04T09:42:48.838Z,149.91
2024-03-04T09:43:48.866Z,146.63
2024-03-04T09:44:48.884Z,142.32
2024-03-04T09:45:48.935Z,134.76
2024-03-04T09:46:49.053Z,128.23
2024-03-04T09:47:49.069Z,118.28
2024-03-04T09:48:49.110Z,115.94
2024-03-04T09:49:49.168Z,113.49
2024-03-04T09:50:49.199Z,116.72
2024-03-04T09:51:49.243Z,121.80
2024-03-04T09:52:49.325Z,113.38
2024-03-04T09:53:49.304Z,100.92
2024-03-04T09:54:49.400Z,94.14
2024-03-04T09:55:49.517Z,77.44
2024-03-04T09:56:49.473Z,81.17
2024-03-04T09:57:49.519Z,82.27
2024-03-04T09:58:49.634Z,90.45
2024-03-04T09:59:49.572Z,96.90
2024-03-04T10:00:49.638Z,96.80
2024-03-04T10:01:49.658Z,100.47
2024-03-04T10:02:49.600Z,103.69
2024-03-04T10:03:49.629Z,98.57
2024-03-04T10:04:49.778Z,89.07
2024-03-04T10:05:49.738Z,95.19
2024-03-04T10:06:49.807Z,102.38
2024-03-04T10:07:49.902Z,107.43
2024-03-04T10:08:49.892Z,113.13
2024-03-04T10:09:50.026Z,117.53
2024-03-04T10:10:50.399Z,118.62
2024-03-04T10:11:50.152Z,116.08
2024-03-04T10:12:50.165Z,113.45
2024-03-04T10:13:50.249Z,104.72
2024-03-04T10:14:50.249Z,100.82
2024-03-04T10:15:50.263Z,101.10
2024-03-04T10:16:50.297Z,100.93
2024-03-04T10:17:50.354Z,100.22
2024-03-04T10:18:50.377Z,101.68
2024-03-04T10:19:50.489Z,101.39
2024-03-04T10:20:50.521Z,97.13
2024-03-04T10:21:50.570Z,94.13
2024-03-04T10:22:50.588Z,95.05
2024-03-04T10:23:50.623Z,90.97
2024-03-04T10:24:50.694Z,94.92
2024-03-04T10:25:50.894Z,99.40
2024-03-04T10:26:50.847Z,94.07
2024-03-04T10:27:50.919Z,93.33
2024-03-04T10:28:51.032Z,96.06
2024-03-04T10:29:51.037Z,89.92
2024-03-04T10:30:51.121Z,88.55
2024-03-04T10:31:51.263Z,90.85
2024-03-04T10:32:51.330Z,92.76
2024-03-04T10:33:51.307Z,91.15
2024-03-04T10:34:51.512Z,91.14
2024-03-04T10:35:53.569Z,85.70
2024-03-04T10:36:51.537Z,87.98
2024-03-04T10:37:51.605Z,89.29
2024-03-04T10:38:51.645Z,92.82
2024-03-04T10:39:51.735Z,93.48
2024-03-04T10:40:51.841Z,90.77
2024-03-04T10:41:51.835Z,91.71
2024-03-04T10:42:51.894Z,98.20
2024-03-04T10:43:51.993Z,98.09
2024-03-04T10:44:52.029Z,91.50
2024-03-04T10:45:52.038Z,109.71
2024-03-04T10:46:52.091Z,111.71
2024-03-04T10:47:52.173Z,107.70
2024-03-04T10:48:52.085Z,106.09
2024-03-04T10:49:52.098Z,104.65
2024-03-04T10:50:52.101Z,102.79
2024-03-04T10:52:03.614Z,103.19
2024-03-04T10:52:53.137Z,102.99
2024-03-04T10:53:52.081Z,103.53
2024-03-04T10:54:52.155Z,103.88
2024-03-04T10:55:52.284Z,105.79
2024-03-04T10:56:52.093Z,106.62
2024-03-04T10:57:52.080Z,97.35
2024-03-04T10:58:52.141Z,101.01
2024-03-04T10:59:52.117Z,102.94
2024-03-04T11:00:52.281Z,97.81
2024-03-04T11:01:52.402Z,94.89
2024-03-04T11:02:58.917Z,91.81
2024-03-04T11:03:52.333Z,91.87
2024-03-04T11:04:52.374Z,92.14
2024-03-04T11:05:52.331Z,92.24
2024-03-04T11:06:52.298Z,90.74
2024-03-04T11:07:52.417Z,91.03
2024-03-04T11:08:52.328Z,91.66
2024-03-04T11:09:52.323Z,96.37
2024-03-04T11:10:52.481Z,97.82
2024-03-04T11:11:52.367Z,102.53
2024-03-04T11:12:52.315Z,104.19
2024-03-04T11:13:52.350Z,105.13
2024-03-04T11:14:52.323Z,108.72
2024-03-04T11:15:52.345Z,106.62
2024-03-04T11:16:52.379Z,104.46
2024-03-04T11:17:52.369Z,108.81
2024-03-04T11:18:52.325Z,112.07
2024-03-04T11:19:52.439Z,114.57
2024-03-04T11:20:52.352Z,116.56
2024-03-04T11:21:52.345Z,115.68
2024-03-04T11:22:52.464Z,114.46
2024-03-04T11:23:52.351Z,114.58
2024-03-04T11:24:52.362Z,117.84
2024-03-04T11:25:52.404Z,117.18
2024-03-04T11:26:52.347Z,117.61
2024-03-04T11:27:52.392Z,120.75
2024-03-04T11:28:52.432Z,117.83
2024-03-04T11:29:52.359Z,122.33
2024-03-04T11:30:52.382Z,121.38
2024-03-04T11:31:52.366Z,121.55
2024-03-04T11:32:52.382Z,124.66
2024-03-04T11:33:52.360Z,122.10
2024-03-04T11:34:52.383Z,128.65
2024-03-04T11:35:52.341Z,128.31
2024-03-04T11:36:52.376Z,129.39
2024-03-04T11:37:52.810Z,130.72
2024-03-04T11:38:52.445Z,137.09
2024-03-04T11:39:54.521Z,138.95
2024-03-04T11:40:52.399Z,139.03
2024-03-04T11:41:52.371Z,134.73
2024-03-04T11:42:52.370Z,130.45
2024-03-04T11:43:52.445Z,122.72
2024-03-04T11:44:52.384Z,114.31
2024-03-04T11:45:52.388Z,100.03
2024-03-04T11:46:52.532Z,88.63
2024-03-04T11:47:52.412Z,77.17
2024-03-04T11:48:52.455Z,79.57
2024-03-04T11:49:52.518Z,83.33
2024-03-04T11:50:52.420Z,79.46
2024-03-04T11:51:52.420Z,80.11
2024-03-04T11:52:52.427Z,82.86
2024-03-04T11:53:52.407Z,82.46
2024-03-04T11:54:52.373Z,83.69
2024-03-04T11:55:52.436Z,87.35
2024-03-04T11:56:52.412Z,96.48
2024-03-04T11:57:52.426Z,99.06
2024-03-04T11:58:52.401Z,103.86
2024-03-04T11:59:52.414Z,108.46
2024-03-04T12:00:54.330Z,114.32
2024-03-04T12:01:53.324Z,114.46
2024-03-04T12:02:52.400Z,114.84
2024-03-04T12:03:54.216Z,117.00
2024-03-04T12:04:52.438Z,120.92
2024-03-04T12:05:52.432Z,122.78
2024-03-04T12:06:52.495Z,123.13
2024-03-04T12:07:52.471Z,124.09
2024-03-04T12:09:08.354Z,124.91
2024-03-04T12:10:04.699Z,125.14
2024-03-04T12:10:53.604Z,125.23
2024-03-04T12:11:52.448Z,127.43
2024-03-04T12:12:52.460Z,131.07
2024-03-04T12:13:52.423Z,136.07
2024-03-04T12:14:52.434Z,141.30
2024-03-04T12:15:52.423Z,141.20
2024-03-04T12:16:52.447Z,146.05
2024-03-04T12:17:52.489Z,157.38
2024-03-04T12:18:52.429Z,156.10
2024-03-04T12:19:52.420Z,162.41
2024-03-04T12:20:52.504Z,161.55
2024-03-04T12:21:52.421Z,160.37
2024-03-04T12:22:52.489Z,160.89
2024-03-04T12:23:52.388Z,156.29
2024-03-04T12:24:52.462Z,156.05
2024-03-04T12:25:52.572Z,159.82
2024-03-04T12:26:52.444Z,168.52
2024-03-04T12:27:52.464Z,174.38
2024-03-04T12:28:52.469Z,177.50
2024-03-04T12:29:52.423Z,176.37
2024-03-04T12:30:52.431Z,177.90
2024-03-04T12:31:52.489Z,181.70
2024-03-04T12:32:52.554Z,177.65
2024-03-04T12:33:52.542Z,179.03
2024-03-04T12:34:52.627Z,178.64
2024-03-04T12:35:52.631Z,174.23
2024-03-04T12:36:52.644Z,170.68
2024-03-04T12:37:52.616Z,166.10
2024-03-04T12:38:52.669Z,160.93
2024-03-04T12:39:52.665Z,158.54
2024-03-04T12:40:52.755Z,156.75
2024-03-04T12:41:52.662Z,154.21
2024-03-04T12:42:52.692Z,153.28
2024-03-04T12:43:52.766Z,152.67
2024-03-04T12:44:52.797Z,150.39